sensor_id;sensor_type;location;lat;lon;timestamp;pressure;altitude;pressure_sealevel;temperature;humidity
72157;BME280;60035;52.122;5.406;2022-08-16T00:02:30;100758.84;;;20.92;69.04
72157;BME280;60035;52.122;5.406;2022-08-16T00:04:59;100762.75;;;20.87;69.89
72157;BME280;60035;52.122;5.406;2022-08-16T00:07:27;100762.97;;;20.84;70.07
72157;BME280;60035;52.122;5.406;2022-08-16T00:09:55;100765.09;;;20.78;70.23
72157;BME280;60035;52.122;5.406;2022-08-16T00:12:22;100764.28;;;20.65;70.75
72157;BME280;60035;52.122;5.406;2022-08-16T00:14:52;100767.34;;;20.59;70.93
72157;BME280;60035;52.122;5.406;2022-08-16T00:17:22;100769.78;;;20.49;71.67
72157;BME280;60035;52.122;5.406;2022-08-16T00:19:53;100767.16;;;20.38;72.15
72157;BME280;60035;52.122;5.406;2022-08-16T00:22:24;100771.84;;;20.33;72.28
72157;BME280;60035;52.122;5.406;2022-08-16T00:24:53;100775.63;;;20.28;72.48
72157;BME280;60035;52.122;5.406;2022-08-16T00:27:21;100778.13;;;20.17;72.20
72157;BME280;60035;52.122;5.406;2022-08-16T00:29:48;100776.31;;;20.06;73.13
72157;BME280;60035;52.122;5.406;2022-08-16T00:32:33;100776.66;;;20.02;73.17
72157;BME280;60035;52.122;5.406;2022-08-16T00:35:00;100776.13;;;19.96;73.43
72157;BME280;60035;52.122;5.406;2022-08-16T00:37:27;100778.75;;;19.84;73.96
72157;BME280;60035;52.122;5.406;2022-08-16T00:40:20;100784.25;;;19.66;74.44
72157;BME280;60035;52.122;5.406;2022-08-16T00:43:06;100771.91;;;19.57;74.84
72157;BME280;60035;52.122;5.406;2022-08-16T00:48:52;100787.38;;;19.45;74.53
72157;BME280;60035;52.122;5.406;2022-08-16T00:51:21;100785.94;;;19.41;75.18
72157;BME280;60035;52.122;5.406;2022-08-16T00:53:49;100781.56;;;19.42;74.83
72157;BME280;60035;52.122;5.406;2022-08-16T00:56:19;100784.91;;;19.44;74.99
72157;BME280;60035;52.122;5.406;2022-08-16T00:59:09;100785.53;;;19.47;74.90
72157;BME280;60035;52.122;5.406;2022-08-16T01:01:42;100781.56;;;19.42;74.59
72157;BME280;60035;52.122;5.406;2022-08-16T01:04:09;100789.03;;;19.34;74.71
72157;BME280;60035;52.122;5.406;2022-08-16T01:06:56;100785.22;;;19.26;75.18
72157;BME280;60035;52.122;5.406;2022-08-16T01:09:30;100775.44;;;19.17;75.40
72157;BME280;60035;52.122;5.406;2022-08-16T01:12:01;100781.03;;;19.11;75.59
72157;BME280;60035;52.122;5.406;2022-08-16T01:14:33;100783.81;;;18.95;75.91
72157;BME280;60035;52.122;5.406;2022-08-16T01:17:02;100786.69;;;18.90;76.40
72157;BME280;60035;52.122;5.406;2022-08-16T01:19:43;100778.16;;;18.88;76.40
72157;BME280;60035;52.122;5.406;2022-08-16T01:25:23;100783.84;;;18.80;76.56
72157;BME280;60035;52.122;5.406;2022-08-16T01:28:02;100781.66;;;18.74;76.52
72157;BME280;60035;52.122;5.406;2022-08-16T01:30:37;100789.44;;;18.74;76.42
72157;BME280;60035;52.122;5.406;2022-08-16T01:33:17;100787.97;;;18.70;76.72
72157;BME280;60035;52.122;5.406;2022-08-16T01:36:04;100786.84;;;18.74;76.26
72157;BME280;60035;52.122;5.406;2022-08-16T01:38:43;100784.34;;;18.73;76.41
72157;BME280;60035;52.122;5.406;2022-08-16T01:41:25;100784.25;;;18.74;76.30
72157;BME280;60035;52.122;5.406;2022-08-16T01:43:56;100784.84;;;18.65;76.55
72157;BME280;60035;52.122;5.406;2022-08-16T01:46:45;100785.97;;;18.61;76.86
72157;BME280;60035;52.122;5.406;2022-08-16T01:49:17;100776.63;;;18.58;76.73
72157;BME280;60035;52.122;5.406;2022-08-16T01:51:47;100779.97;;;18.60;76.64
72157;BME280;60035;52.122;5.406;2022-08-16T01:54:15;100788.94;;;18.55;76.46
72157;BME280;60035;52.122;5.406;2022-08-16T01:56:56;100780.44;;;18.53;76.66
72157;BME280;60035;52.122;5.406;2022-08-16T01:59:23;100781.00;;;18.58;76.74
72157;BME280;60035;52.122;5.406;2022-08-16T02:01:53;100771.00;;;18.52;76.70
72157;BME280;60035;52.122;5.406;2022-08-16T02:04:27;100777.84;;;18.53;76.76
72157;BME280;60035;52.122;5.406;2022-08-16T02:07:14;100776.19;;;18.52;76.44
72157;BME280;60035;52.122;5.406;2022-08-16T02:09:46;100776.28;;;18.50;76.61
72157;BME280;60035;52.122;5.406;2022-08-16T02:12:27;100779.09;;;18.47;76.76
72157;BME280;60035;52.122;5.406;2022-08-16T02:15:17;100778.34;;;18.45;76.85
72157;BME280;60035;52.122;5.406;2022-08-16T02:17:52;100779.47;;;18.41;76.81
72157;BME280;60035;52.122;5.406;2022-08-16T02:20:20;100782.00;;;18.28;76.90
72157;BME280;60035;52.122;5.406;2022-08-16T02:22:54;100787.66;;;18.20;77.03
72157;BME280;60035;52.122;5.406;2022-08-16T02:25:23;100784.34;;;18.18;77.06
72157;BME280;60035;52.122;5.406;2022-08-16T02:28:10;100787.22;;;18.13;77.54
72157;BME280;60035;52.122;5.406;2022-08-16T02:30:36;100786.50;;;18.11;77.76
72157;BME280;60035;52.122;5.406;2022-08-16T02:33:11;100789.47;;;18.05;77.47
72157;BME280;60035;52.122;5.406;2022-08-16T02:35:40;100787.41;;;18.10;76.85
72157;BME280;60035;52.122;5.406;2022-08-16T02:38:19;100784.94;;;18.09;77.34
72157;BME280;60035;52.122;5.406;2022-08-16T02:40:46;100785.09;;;18.06;77.63
72157;BME280;60035;52.122;5.406;2022-08-16T02:43:14;100790.22;;;18.07;77.74
72157;BME280;60035;52.122;5.406;2022-08-16T02:45:42;100789.66;;;18.02;77.80
72157;BME280;60035;52.122;5.406;2022-08-16T02:48:09;100788.09;;;18.00;78.19
72157;BME280;60035;52.122;5.406;2022-08-16T02:50:59;100791.03;;;18.08;77.85
72157;BME280;60035;52.122;5.406;2022-08-16T02:53:38;100785.75;;;18.09;77.61
72157;BME280;60035;52.122;5.406;2022-08-16T02:56:09;100779.47;;;17.99;78.07
72157;BME280;60035;52.122;5.406;2022-08-16T02:58:40;100780.75;;;17.92;78.01
72157;BME280;60035;52.122;5.406;2022-08-16T03:01:10;100785.13;;;17.91;78.07
72157;BME280;60035;52.122;5.406;2022-08-16T03:03:52;100780.09;;;17.88;77.92
72157;BME280;60035;52.122;5.406;2022-08-16T03:06:39;100780.19;;;17.87;77.81
72157;BME280;60035;52.122;5.406;2022-08-16T03:09:09;100780.19;;;17.87;77.61
72157;BME280;60035;52.122;5.406;2022-08-16T03:11:41;100781.13;;;17.86;77.72
72157;BME280;60035;52.122;5.406;2022-08-16T03:14:08;100786.59;;;17.81;77.86
72157;BME280;60035;52.122;5.406;2022-08-16T03:16:37;100782.34;;;17.80;77.77
72157;BME280;60035;52.122;5.406;2022-08-16T03:19:23;100781.41;;;17.81;77.84
72157;BME280;60035;52.122;5.406;2022-08-16T03:22:13;100776.34;;;17.79;77.87
72157;BME280;60035;52.122;5.406;2022-08-16T03:24:54;100769.66;;;17.75;77.93
72157;BME280;60035;52.122;5.406;2022-08-16T03:27:24;100775.13;;;17.71;77.93
72157;BME280;60035;52.122;5.406;2022-08-16T03:29:58;100774.09;;;17.73;77.77
72157;BME280;60035;52.122;5.406;2022-08-16T03:32:28;100769.94;;;17.71;78.09
72157;BME280;60035;52.122;5.406;2022-08-16T03:34:54;100773.75;;;17.65;78.07
72157;BME280;60035;52.122;5.406;2022-08-16T03:37:22;100768.84;;;17.60;78.33
72157;BME280;60035;52.122;5.406;2022-08-16T03:39:50;100766.53;;;17.56;78.18
72157;BME280;60035;52.122;5.406;2022-08-16T03:42:28;100777.25;;;17.49;78.22
72157;BME280;60035;52.122;5.406;2022-08-16T03:44:54;100777.50;;;17.45;78.36
72157;BME280;60035;52.122;5.406;2022-08-16T03:47:29;100784.09;;;17.36;78.40
72157;BME280;60035;52.122;5.406;2022-08-16T03:50:00;100777.34;;;17.34;78.58
72157;BME280;60035;52.122;5.406;2022-08-16T03:52:28;100775.31;;;17.39;78.24
72157;BME280;60035;52.122;5.406;2022-08-16T03:54:57;100784.91;;;17.37;78.64
72157;BME280;60035;52.122;5.406;2022-08-16T03:57:26;100782.16;;;17.40;78.03
72157;BME280;60035;52.122;5.406;2022-08-16T04:00:03;100780.19;;;17.43;77.94
72157;BME280;60035;52.122;5.406;2022-08-16T04:02:59;100795.53;;;17.32;78.17
72157;BME280;60035;52.122;5.406;2022-08-16T04:05:34;100800.50;;;17.21;78.34
72157;BME280;60035;52.122;5.406;2022-08-16T04:08:04;100802.03;;;17.09;78.74
72157;BME280;60035;52.122;5.406;2022-08-16T04:10:50;100811.47;;;17.10;78.72
72157;BME280;60035;52.122;5.406;2022-08-16T04:13:17;100801.78;;;17.13;78.15
72157;BME280;60035;52.122;5.406;2022-08-16T04:15:46;100805.47;;;17.09;78.02
72157;BME280;60035;52.122;5.406;2022-08-16T04:18:18;100805.47;;;17.09;78.70
72157;BME280;60035;52.122;5.406;2022-08-16T04:20:44;100804.63;;;17.09;78.85
72157;BME280;60035;52.122;5.406;2022-08-16T04:23:12;100809.72;;;17.10;78.93
72157;BME280;60035;52.122;5.406;2022-08-16T04:25:38;100817.66;;;17.07;78.90
72157;BME280;60035;52.122;5.406;2022-08-16T04:28:05;100814.97;;;17.09;79.07
72157;BME280;60035;52.122;5.406;2022-08-16T04:30:53;100813.31;;;17.08;79.19
72157;BME280;60035;52.122;5.406;2022-08-16T04:33:20;100817.19;;;17.01;79.44
72157;BME280;60035;52.122;5.406;2022-08-16T04:35:55;100810.41;;;16.98;79.43
72157;BME280;60035;52.122;5.406;2022-08-16T04:38:23;100815.50;;;16.99;79.77
72157;BME280;60035;52.122;5.406;2022-08-16T04:40:51;100823.13;;;17.03;79.64
72157;BME280;60035;52.122;5.406;2022-08-16T04:43:19;100822.16;;;17.04;79.86
72157;BME280;60035;52.122;5.406;2022-08-16T04:45:49;100828.09;;;17.06;79.89
72157;BME280;60035;52.122;5.406;2022-08-16T04:48:26;100830.59;;;17.07;80.20
72157;BME280;60035;52.122;5.406;2022-08-16T04:50:59;100841.53;;;17.12;80.60
72157;BME280;60035;52.122;5.406;2022-08-16T04:53:26;100836.06;;;17.17;80.43
72157;BME280;60035;52.122;5.406;2022-08-16T04:55:54;100834.81;;;17.24;80.42
72157;BME280;60035;52.122;5.406;2022-08-16T04:58:21;100835.63;;;17.25;80.87
72157;BME280;60035;52.122;5.406;2022-08-16T05:01:07;100842.13;;;17.32;80.81
72157;BME280;60035;52.122;5.406;2022-08-16T05:03:34;100834.94;;;17.37;81.03
72157;BME280;60035;52.122;5.406;2022-08-16T05:06:07;100840.69;;;17.42;81.16
72157;BME280;60035;52.122;5.406;2022-08-16T05:08:35;100844.66;;;17.48;81.14
72157;BME280;60035;52.122;5.406;2022-08-16T05:11:05;100840.88;;;17.54;80.76
72157;BME280;60035;52.122;5.406;2022-08-16T05:13:36;100843.00;;;17.61;80.99
72157;BME280;60035;52.122;5.406;2022-08-16T05:16:07;100845.97;;;17.70;80.68
72157;BME280;60035;52.122;5.406;2022-08-16T05:18:37;100849.78;;;17.78;80.36
72157;BME280;60035;52.122;5.406;2022-08-16T05:21:03;100839.13;;;17.83;80.58
72157;BME280;60035;52.122;5.406;2022-08-16T05:23:37;100843.19;;;17.87;80.81
72157;BME280;60035;52.122;5.406;2022-08-16T05:26:05;100843.84;;;17.91;80.64
72157;BME280;60035;52.122;5.406;2022-08-16T05:28:45;100844.44;;;17.96;80.73
72157;BME280;60035;52.122;5.406;2022-08-16T05:31:20;100848.84;;;18.08;81.00
72157;BME280;60035;52.122;5.406;2022-08-16T05:33:48;100849.69;;;18.23;79.98
72157;BME280;60035;52.122;5.406;2022-08-16T05:36:20;100846.44;;;18.34;79.67
72157;BME280;60035;52.122;5.406;2022-08-16T05:38:47;100841.69;;;18.41;79.68
72157;BME280;60035;52.122;5.406;2022-08-16T05:41:15;100838.09;;;18.43;79.47
72157;BME280;60035;52.122;5.406;2022-08-16T05:43:44;100841.31;;;18.47;79.50
72157;BME280;60035;52.122;5.406;2022-08-16T05:46:15;100848.78;;;18.52;79.59
72157;BME280;60035;52.122;5.406;2022-08-16T05:48:59;100846.53;;;18.60;79.22
72157;BME280;60035;52.122;5.406;2022-08-16T05:51:35;100846.81;;;18.70;79.13
72157;BME280;60035;52.122;5.406;2022-08-16T05:54:06;100847.78;;;18.81;79.20
72157;BME280;60035;52.122;5.406;2022-08-16T05:56:33;100844.72;;;18.89;79.00
72157;BME280;60035;52.122;5.406;2022-08-16T05:59:03;100851.28;;;18.95;78.89
72157;BME280;60035;52.122;5.406;2022-08-16T06:01:33;100851.94;;;18.98;78.66
72157;BME280;60035;52.122;5.406;2022-08-16T06:04:07;100854.31;;;19.02;78.73
72157;BME280;60035;52.122;5.406;2022-08-16T06:06:55;100857.97;;;19.12;78.80
72157;BME280;60035;52.122;5.406;2022-08-16T06:09:24;100857.47;;;19.20;78.32
72157;BME280;60035;52.122;5.406;2022-08-16T06:12:11;100862.88;;;19.29;78.21
72157;BME280;60035;52.122;5.406;2022-08-16T06:14:52;100863.94;;;19.40;77.96
72157;BME280;60035;52.122;5.406;2022-08-16T06:17:24;100859.88;;;19.48;77.79
72157;BME280;60035;52.122;5.406;2022-08-16T06:20:12;100856.59;;;19.59;77.66
72157;BME280;60035;52.122;5.406;2022-08-16T06:22:39;100865.50;;;19.68;77.41
72157;BME280;60035;52.122;5.406;2022-08-16T06:25:11;100861.16;;;19.81;76.89
72157;BME280;60035;52.122;5.406;2022-08-16T06:27:40;100867.41;;;19.92;76.84
72157;BME280;60035;52.122;5.406;2022-08-16T06:30:22;100861.47;;;20.03;76.41
72157;BME280;60035;52.122;5.406;2022-08-16T06:32:53;100859.88;;;20.13;75.90
72157;BME280;60035;52.122;5.406;2022-08-16T06:35:45;100865.25;;;20.23;75.94
72157;BME280;60035;52.122;5.406;2022-08-16T06:38:12;100869.63;;;20.35;75.39
72157;BME280;60035;52.122;5.406;2022-08-16T06:40:59;100876.78;;;20.44;75.20
72157;BME280;60035;52.122;5.406;2022-08-16T06:43:27;100870.69;;;20.57;74.40
72157;BME280;60035;52.122;5.406;2022-08-16T06:45:58;100869.53;;;20.61;73.77
72157;BME280;60035;52.122;5.406;2022-08-16T06:48:29;100863.88;;;20.67;73.91
72157;BME280;60035;52.122;5.406;2022-08-16T06:51:03;100865.63;;;20.79;73.26
72157;BME280;60035;52.122;5.406;2022-08-16T06:53:32;100861.53;;;20.88;73.43
72157;BME280;60035;52.122;5.406;2022-08-16T06:56:02;100865.13;;;20.99;72.58
72157;BME280;60035;52.122;5.406;2022-08-16T06:58:32;100872.59;;;21.03;72.08
72157;BME280;60035;52.122;5.406;2022-08-16T07:01:02;100872.03;;;21.11;71.45
72157;BME280;60035;52.122;5.406;2022-08-16T07:03:35;100869.91;;;21.16;71.13
72157;BME280;60035;52.122;5.406;2022-08-16T07:06:22;100875.63;;;21.21;70.94
72157;BME280;60035;52.122;5.406;2022-08-16T07:08:52;100869.72;;;21.30;70.34
72157;BME280;60035;52.122;5.406;2022-08-16T07:11:20;100871.75;;;21.38;70.18
72157;BME280;60035;52.122;5.406;2022-08-16T07:14:07;100880.56;;;21.49;69.60
72157;BME280;60035;52.122;5.406;2022-08-16T07:16:55;100883.19;;;21.60;69.26
72157;BME280;60035;52.122;5.406;2022-08-16T07:19:27;100881.81;;;21.67;68.91
72157;BME280;60035;52.122;5.406;2022-08-16T07:22:18;100881.66;;;21.80;68.82
72157;BME280;60035;52.122;5.406;2022-08-16T07:25:06;100885.13;;;21.92;68.60
72157;BME280;60035;52.122;5.406;2022-08-16T07:27:35;100888.56;;;22.04;67.45
72157;BME280;60035;52.122;5.406;2022-08-16T07:30:05;100891.16;;;22.15;66.91
72157;BME280;60035;52.122;5.406;2022-08-16T07:32:52;100883.94;;;22.19;65.62
72157;BME280;60035;52.122;5.406;2022-08-16T07:35:21;100884.50;;;22.22;65.50
72157;BME280;60035;52.122;5.406;2022-08-16T07:37:47;100885.72;;;22.29;64.74
72157;BME280;60035;52.122;5.406;2022-08-16T07:40:14;100881.19;;;22.32;64.66
72157;BME280;60035;52.122;5.406;2022-08-16T07:42:42;100882.03;;;22.43;64.55
72157;BME280;60035;52.122;5.406;2022-08-16T07:45:10;100894.00;;;22.57;64.22
72157;BME280;60035;52.122;5.406;2022-08-16T07:47:37;100896.09;;;22.63;64.01
72157;BME280;60035;52.122;5.406;2022-08-16T07:50:07;100906.63;;;22.73;63.65
72157;BME280;60035;52.122;5.406;2022-08-16T07:52:54;100916.69;;;22.89;63.08
72157;BME280;60035;52.122;5.406;2022-08-16T07:55:21;100908.91;;;22.99;62.10
72157;BME280;60035;52.122;5.406;2022-08-16T07:57:47;100915.19;;;23.08;61.44
72157;BME280;60035;52.122;5.406;2022-08-16T08:00:28;100915.28;;;23.18;61.74
72157;BME280;60035;52.122;5.406;2022-08-16T08:02:56;100924.59;;;23.32;61.74
72157;BME280;60035;52.122;5.406;2022-08-16T08:05:23;100922.13;;;23.30;60.51
72157;BME280;60035;52.122;5.406;2022-08-16T08:08:01;100921.59;;;23.36;59.74
72157;BME280;60035;52.122;5.406;2022-08-16T08:10:37;100922.63;;;23.45;59.16
72157;BME280;60035;52.122;5.406;2022-08-16T08:13:04;100924.22;;;23.57;59.83
72157;BME280;60035;52.122;5.406;2022-08-16T08:15:33;100918.00;;;23.79;59.94
72157;BME280;60035;52.122;5.406;2022-08-16T08:18:04;100921.13;;;23.94;59.54
72157;BME280;60035;52.122;5.406;2022-08-16T08:20:51;100917.19;;;24.00;59.09
72157;BME280;60035;52.122;5.406;2022-08-16T08:23:25;100920.66;;;24.10;58.01
72157;BME280;60035;52.122;5.406;2022-08-16T08:25:53;100927.97;;;24.17;58.04
72157;BME280;60035;52.122;5.406;2022-08-16T08:28:21;100916.72;;;24.26;58.50
72157;BME280;60035;52.122;5.406;2022-08-16T08:30:48;100926.69;;;24.42;58.01
72157;BME280;60035;52.122;5.406;2022-08-16T08:33:26;100926.59;;;24.53;57.08
72157;BME280;60035;52.122;5.406;2022-08-16T08:35:56;100934.31;;;24.55;56.59
72157;BME280;60035;52.122;5.406;2022-08-16T08:38:27;100934.22;;;24.66;55.31
72157;BME280;60035;52.122;5.406;2022-08-16T08:41:10;100940.28;;;24.76;55.40
72157;BME280;60035;52.122;5.406;2022-08-16T08:43:38;100942.78;;;24.88;55.82
72157;BME280;60035;52.122;5.406;2022-08-16T08:46:08;100948.72;;;25.00;55.72
72157;BME280;60035;52.122;5.406;2022-08-16T08:48:47;100946.94;;;25.00;56.04
72157;BME280;60035;52.122;5.406;2022-08-16T08:51:25;100944.16;;;25.02;56.13
72157;BME280;60035;52.122;5.406;2022-08-16T08:53:57;100938.66;;;25.05;55.58
72157;BME280;60035;52.122;5.406;2022-08-16T08:56:24;100936.72;;;25.07;55.33
72157;BME280;60035;52.122;5.406;2022-08-16T08:58:52;100947.75;;;25.20;54.74
72157;BME280;60035;52.122;5.406;2022-08-16T09:01:29;100945.00;;;25.32;55.00
72157;BME280;60035;52.122;5.406;2022-08-16T09:04:03;100941.00;;;25.37;54.76
72157;BME280;60035;52.122;5.406;2022-08-16T09:06:41;100935.78;;;25.47;54.74
72157;BME280;60035;52.122;5.406;2022-08-16T09:09:10;100931.59;;;25.54;54.72
72157;BME280;60035;52.122;5.406;2022-08-16T09:11:43;100936.59;;;25.57;54.34
72157;BME280;60035;52.122;5.406;2022-08-16T09:14:14;100950.63;;;25.66;54.51
72157;BME280;60035;52.122;5.406;2022-08-16T09:16:51;100946.59;;;25.72;52.95
72157;BME280;60035;52.122;5.406;2022-08-16T09:19:32;100947.84;;;25.68;53.11
72157;BME280;60035;52.122;5.406;2022-08-16T09:21:59;100960.56;;;25.63;53.08
72157;BME280;60035;52.122;5.406;2022-08-16T09:24:26;100955.03;;;25.75;53.35
72157;BME280;60035;52.122;5.406;2022-08-16T09:27:35;100968.22;;;26.03;52.75
72157;BME280;60035;52.122;5.406;2022-08-16T09:30:22;100963.06;;;26.21;52.49
72157;BME280;60035;52.122;5.406;2022-08-16T09:33:01;100958.44;;;26.33;51.52
72157;BME280;60035;52.122;5.406;2022-08-16T09:35:59;100961.00;;;26.43;52.58
72157;BME280;60035;52.122;5.406;2022-08-16T09:38:26;100962.75;;;26.52;52.59
72157;BME280;60035;52.122;5.406;2022-08-16T09:40:59;100966.69;;;26.66;51.50
72157;BME280;60035;52.122;5.406;2022-08-16T09:43:26;100964.03;;;26.76;50.93
72157;BME280;60035;52.122;5.406;2022-08-16T09:46:30;100964.06;;;26.66;50.71
72157;BME280;60035;52.122;5.406;2022-08-16T09:49:15;100969.13;;;26.77;51.19
72157;BME280;60035;52.122;5.406;2022-08-16T09:51:46;100954.88;;;26.98;50.68
72157;BME280;60035;52.122;5.406;2022-08-16T09:54:14;100970.19;;;27.21;50.40
72157;BME280;60035;52.122;5.406;2022-08-16T09:56:49;100974.38;;;27.32;50.12
72157;BME280;60035;52.122;5.406;2022-08-16T09:59:23;100974.56;;;27.48;49.43
72157;BME280;60035;52.122;5.406;2022-08-16T10:01:56;100970.31;;;27.55;49.57
72157;BME280;60035;52.122;5.406;2022-08-16T10:04:23;100973.91;;;27.54;47.89
72157;BME280;60035;52.122;5.406;2022-08-16T10:07:10;100971.31;;;27.36;49.11
72157;BME280;60035;52.122;5.406;2022-08-16T10:09:42;100975.00;;;27.43;49.06
72157;BME280;60035;52.122;5.406;2022-08-16T10:12:10;100973.81;;;27.38;49.27
72157;BME280;60035;52.122;5.406;2022-08-16T10:14:56;100970.22;;;27.65;48.47
72157;BME280;60035;52.122;5.406;2022-08-16T10:17:25;100977.41;;;27.81;48.48
72157;BME280;60035;52.122;5.406;2022-08-16T10:19:53;100969.38;;;27.91;47.18
72157;BME280;60035;52.122;5.406;2022-08-16T10:22:21;100975.41;;;28.01;47.91
72157;BME280;60035;52.122;5.406;2022-08-16T10:24:48;100972.19;;;28.24;45.88
72157;BME280;60035;52.122;5.406;2022-08-16T10:27:28;100980.16;;;28.40;46.84
72157;BME280;60035;52.122;5.406;2022-08-16T10:30:16;100967.69;;;28.59;46.27
72157;BME280;60035;52.122;5.406;2022-08-16T10:32:54;100968.13;;;28.72;45.90
72157;BME280;60035;52.122;5.406;2022-08-16T10:35:22;100968.94;;;28.89;44.42
72157;BME280;60035;52.122;5.406;2022-08-16T10:37:58;100960.56;;;29.11;44.51
72157;BME280;60035;52.122;5.406;2022-08-16T10:40:32;100969.16;;;29.29;44.84
72157;BME280;60035;52.122;5.406;2022-08-16T10:42:58;100977.06;;;29.29;44.32
72157;BME280;60035;52.122;5.406;2022-08-16T10:45:33;100977.88;;;29.21;45.19
72157;BME280;60035;52.122;5.406;2022-08-16T10:48:04;100973.72;;;29.11;45.44
72157;BME280;60035;52.122;5.406;2022-08-16T10:50:51;100975.06;;;28.98;46.34
72157;BME280;60035;52.122;5.406;2022-08-16T10:53:18;100981.66;;;29.11;46.19
72157;BME280;60035;52.122;5.406;2022-08-16T10:56:20;100975.72;;;29.17;45.75
72157;BME280;60035;52.122;5.406;2022-08-16T10:59:06;100980.06;;;29.42;46.32
72157;BME280;60035;52.122;5.406;2022-08-16T11:01:53;100977.72;;;29.39;45.35
72157;BME280;60035;52.122;5.406;2022-08-16T11:04:40;100992.91;;;29.46;45.41
72157;BME280;60035;52.122;5.406;2022-08-16T11:07:26;100985.81;;;29.54;45.52
72157;BME280;60035;52.122;5.406;2022-08-16T11:10:17;100996.16;;;29.72;45.19
72157;BME280;60035;52.122;5.406;2022-08-16T11:12:46;100986.44;;;29.65;45.15
72157;BME280;60035;52.122;5.406;2022-08-16T11:15:18;100994.56;;;29.47;45.43
72157;BME280;60035;52.122;5.406;2022-08-16T11:17:45;100995.88;;;29.51;45.60
72157;BME280;60035;52.122;5.406;2022-08-16T11:20:32;101000.13;;;29.68;45.06
72157;BME280;60035;52.122;5.406;2022-08-16T11:23:08;100999.09;;;29.86;44.63
72157;BME280;60035;52.122;5.406;2022-08-16T11:25:39;101003.41;;;29.87;45.27
72157;BME280;60035;52.122;5.406;2022-08-16T11:28:26;101007.31;;;30.16;44.46
72157;BME280;60035;52.122;5.406;2022-08-16T11:31:13;101007.66;;;30.44;44.99
72157;BME280;60035;52.122;5.406;2022-08-16T11:33:41;101008.38;;;30.78;43.81
72157;BME280;60035;52.122;5.406;2022-08-16T11:36:32;101008.78;;;30.89;43.85
72157;BME280;60035;52.122;5.406;2022-08-16T11:38:59;101009.75;;;31.20;43.39
72157;BME280;60035;52.122;5.406;2022-08-16T11:41:26;101014.72;;;31.38;43.16
72157;BME280;60035;52.122;5.406;2022-08-16T11:43:56;101009.59;;;31.36;42.49
72157;BME280;60035;52.122;5.406;2022-08-16T11:46:23;101012.91;;;31.38;42.60
72157;BME280;60035;52.122;5.406;2022-08-16T11:49:10;101017.22;;;31.54;41.82
72157;BME280;60035;52.122;5.406;2022-08-16T11:51:40;101027.06;;;31.46;41.29
72157;BME280;60035;52.122;5.406;2022-08-16T11:54:11;101029.06;;;31.44;41.98
72157;BME280;60035;52.122;5.406;2022-08-16T11:56:59;101019.94;;;31.84;41.26
72157;BME280;60035;52.122;5.406;2022-08-16T11:59:25;101018.09;;;32.15;41.54
72157;BME280;60035;52.122;5.406;2022-08-16T12:01:58;101017.25;;;32.59;40.21
72157;BME280;60035;52.122;5.406;2022-08-16T12:04:44;101020.09;;;32.43;40.48
72157;BME280;60035;52.122;5.406;2022-08-16T12:07:17;101023.41;;;32.45;39.34
72157;BME280;60035;52.122;5.406;2022-08-16T12:09:44;101031.66;;;32.20;39.28
72157;BME280;60035;52.122;5.406;2022-08-16T12:12:14;101028.53;;;32.01;39.67
72157;BME280;60035;52.122;5.406;2022-08-16T12:14:43;101017.28;;;31.84;40.50
72157;BME280;60035;52.122;5.406;2022-08-16T12:17:11;101017.75;;;32.03;39.81
72157;BME280;60035;52.122;5.406;2022-08-16T12:19:39;101022.31;;;32.09;39.50
72157;BME280;60035;52.122;5.406;2022-08-16T12:22:06;101018.56;;;32.48;38.31
72157;BME280;60035;52.122;5.406;2022-08-16T12:24:45;101019.53;;;32.99;37.87
72157;BME280;60035;52.122;5.406;2022-08-16T12:27:19;101016.03;;;33.42;36.99
72157;BME280;60035;52.122;5.406;2022-08-16T12:29:50;101019.59;;;33.05;36.68
72157;BME280;60035;52.122;5.406;2022-08-16T12:32:16;101015.81;;;32.93;36.84
72157;BME280;60035;52.122;5.406;2022-08-16T12:35:04;101015.84;;;32.78;37.24
72157;BME280;60035;52.122;5.406;2022-08-16T12:37:32;101023.03;;;32.48;38.51
72157;BME280;60035;52.122;5.406;2022-08-16T12:40:00;101028.47;;;32.61;38.04
72157;BME280;60035;52.122;5.406;2022-08-16T12:42:27;101030.31;;;32.61;39.32
72157;BME280;60035;52.122;5.406;2022-08-16T12:45:07;101038.50;;;32.29;39.31
72157;BME280;60035;52.122;5.406;2022-08-16T12:47:34;101041.91;;;32.23;40.04
72157;BME280;60035;52.122;5.406;2022-08-16T12:50:39;101038.38;;;31.78;38.66
72157;BME280;60035;52.122;5.406;2022-08-16T12:53:06;101052.53;;;31.47;39.98
72157;BME280;60035;52.122;5.406;2022-08-16T12:55:35;101059.47;;;31.48;39.90
72157;BME280;60035;52.122;5.406;2022-08-16T12:58:09;101057.78;;;31.32;40.38
72157;BME280;60035;52.122;5.406;2022-08-16T13:00:58;101059.00;;;31.21;40.41
72157;BME280;60035;52.122;5.406;2022-08-16T13:03:26;101063.59;;;31.04;41.46
72157;BME280;60035;52.122;5.406;2022-08-16T13:05:58;101060.16;;;31.18;41.19
72157;BME280;60035;52.122;5.406;2022-08-16T13:08:25;101063.81;;;31.40;41.15
72157;BME280;60035;52.122;5.406;2022-08-16T13:10:56;101061.78;;;31.89;40.50
72157;BME280;60035;52.122;5.406;2022-08-16T13:13:24;101059.41;;;31.94;40.00
72157;BME280;60035;52.122;5.406;2022-08-16T13:15:54;101066.16;;;31.97;40.48
72157;BME280;60035;52.122;5.406;2022-08-16T13:18:29;101066.94;;;32.20;40.16
72157;BME280;60035;52.122;5.406;2022-08-16T13:21:01;101064.28;;;32.35;39.74
72157;BME280;60035;52.122;5.406;2022-08-16T13:23:29;101057.44;;;32.26;40.15
72157;BME280;60035;52.122;5.406;2022-08-16T13:25:56;101055.31;;;32.21;40.16
72157;BME280;60035;52.122;5.406;2022-08-16T13:28:23;101049.09;;;32.14;40.56
72157;BME280;60035;52.122;5.406;2022-08-16T13:30:54;101048.28;;;32.14;39.61
72157;BME280;60035;52.122;5.406;2022-08-16T13:33:24;101046.38;;;32.22;39.63